Time;durP1;ratioP1;P1;durP2;ratioP2;P2;SDS_P1;SDS_P2;PMS_P1;PMS_P2;Temp;Humidity;BMP_temperature;BMP_pressure;BME280_temperature;BME280_humidity;BME280_pressure;Samples;Min_cycle;Max_cycle;Signal;HPM_P1;HPM_P2
2022/12/15 00:39:33;;;;;;;15.70;9.93;;;;;;;;;;5048382;28;20213;-75
2022/12/15 00:41:58;;;;;;;15.93;11.03;;;;;;;;;;5048126;28;20266;-74
2022/12/15 00:44:23;;;;;;;13.97;10.23;;;;;;;;;;5045852;28;20187;-75
2022/12/15 00:46:55;;;;;;;11.80;9.27;;;;;;;;;;5040765;28;20182;-75
2022/12/15 01:22:08;;;;;;;21.73;12.83;;;;;;;;;;5044071;28;20444;-75
2022/12/15 01:24:33;;;;;;;19.63;12.33;;;;;;;;;;5041708;28;20270;-74
2022/12/15 01:26:58;;;;;;;23.93;15.73;;;;;;;;;;5046051;28;20170;-75
2022/12/15 01:29:24;;;;;;;25.83;14.87;;;;;;;;;;5043163;28;20178;-75
2022/12/15 01:31:49;;;;;;;25.40;15.80;;;;;;;;;;5040403;28;20221;-74
2022/12/15 01:34:14;;;;;;;22.03;14.63;;;;;;;;;;5042264;28;21329;-74
2022/12/15 01:36:39;;;;;;;25.10;16.13;;;;;;;;;;5043978;28;20185;-74
2022/12/15 01:39:04;;;;;;;26.80;16.83;;;;;;;;;;5041432;28;20281;-74
2022/12/15 01:41:29;;;;;;;27.53;17.30;;;;;;;;;;5045689;28;20213;-74
2022/12/15 01:44:13;;;;;;;22.00;15.20;;;;;;;;;;5041995;28;20182;-75
2022/12/15 01:46:38;;;;;;;24.27;15.80;;;;;;;;;;5046939;28;20209;-75
2022/12/15 01:49:09;;;;;;;21.73;15.40;;;;;;;;;;5040610;28;20178;-75
2022/12/15 01:51:38;;;;;;;26.33;16.43;;;;;;;;;;5046684;28;20187;-74
2022/12/15 01:54:05;;;;;;;22.73;15.73;;;;;;;;;;5043936;28;20176;-74
2022/12/15 01:56:32;;;;;;;26.77;17.50;;;;;;;;;;5042580;28;20175;-74
2022/12/15 01:58:58;;;;;;;29.17;17.53;;;;;;;;;;5039708;28;20206;-75
2022/12/15 02:01:23;;;;;;;27.07;16.13;;;;;;;;;;5041948;28;20201;-75
2022/12/15 02:03:49;;;;;;;24.70;15.50;;;;;;;;;;5038927;28;20203;-74
2022/12/15 02:06:15;;;;;;;28.37;16.60;;;;;;;;;;5043195;28;20722;-75
2022/12/15 02:08:43;;;;;;;28.00;18.20;;;;;;;;;;5036628;28;20596;-75
2022/12/15 02:11:09;;;;;;;28.33;16.87;;;;;;;;;;5040086;28;20186;-74
2022/12/15 02:13:41;;;;;;;22.07;14.70;;;;;;;;;;5038541;28;20179;-74
2022/12/15 02:16:25;;;;;;;30.00;17.57;;;;;;;;;;5041408;28;20205;-75
2022/12/15 02:19:03;;;;;;;27.43;17.70;;;;;;;;;;5039277;28;20214;-74
2022/12/15 02:21:31;;;;;;;23.80;16.63;;;;;;;;;;5039083;28;20185;-74
2022/12/15 02:24:09;;;;;;;27.27;17.63;;;;;;;;;;5041418;28;20218;-76
2022/12/15 02:26:50;;;;;;;26.60;16.43;;;;;;;;;;5039918;28;20213;-74
2022/12/15 02:29:21;;;;;;;28.13;18.23;;;;;;;;;;5046921;28;21641;-74
2022/12/15 02:31:53;;;;;;;28.37;17.83;;;;;;;;;;5043978;28;20212;-75
2022/12/15 02:34:31;;;;;;;28.10;17.90;;;;;;;;;;5041818;28;20229;-75
2022/12/15 02:36:58;;;;;;;28.97;17.73;;;;;;;;;;5043930;28;21773;-75
2022/12/15 02:39:24;;;;;;;28.40;18.67;;;;;;;;;;5047664;28;20201;-74
2022/12/15 02:41:51;;;;;;;26.00;18.17;;;;;;;;;;5046524;28;20191;-74
2022/12/15 02:44:19;;;;;;;28.67;17.50;;;;;;;;;;5043161;28;20174;-75
2022/12/15 02:47:03;;;;;;;26.50;17.27;;;;;;;;;;5042213;28;20182;-75
2022/12/15 02:49:47;;;;;;;30.67;18.03;;;;;;;;;;5044186;28;20191;-74
2022/12/15 02:52:13;;;;;;;25.87;16.93;;;;;;;;;;5046020;28;20182;-74
2022/12/15 02:54:47;;;;;;;25.47;16.57;;;;;;;;;;5043516;28;20186;-74
2022/12/15 02:57:18;;;;;;;25.60;17.70;;;;;;;;;;5041883;28;20178;-75
2022/12/15 02:59:54;;;;;;;33.00;18.87;;;;;;;;;;5042671;28;20198;-75
2022/12/15 03:02:20;;;;;;;27.30;17.93;;;;;;;;;;5042023;28;20225;-75
2022/12/15 03:04:45;;;;;;;26.43;16.23;;;;;;;;;;5043041;28;20241;-74
2022/12/15 03:07:12;;;;;;;26.13;16.93;;;;;;;;;;5044406;28;20271;-74
2022/12/15 03:09:37;;;;;;;28.83;16.53;;;;;;;;;;5041680;28;20185;-75
2022/12/15 03:12:03;;;;;;;26.33;16.67;;;;;;;;;;5042568;28;20175;-75
2022/12/15 03:14:28;;;;;;;28.07;18.53;;;;;;;;;;5043222;28;20178;-74
2022/12/15 03:16:53;;;;;;;25.67;16.17;;;;;;;;;;5041832;28;20179;-74
2022/12/15 03:19:19;;;;;;;30.17;19.27;;;;;;;;;;5043207;28;20199;-74
2022/12/15 03:21:44;;;;;;;25.47;18.10;;;;;;;;;;5049349;28;20202;-75
2022/12/15 03:24:09;;;;;;;26.33;16.03;;;;;;;;;;5041135;28;20238;-74
2022/12/15 03:26:34;;;;;;;26.23;17.10;;;;;;;;;;5044700;28;20183;-75
2022/12/15 03:28:59;;;;;;;27.17;16.57;;;;;;;;;;5045340;28;20184;-74
2022/12/15 03:31:25;;;;;;;29.23;18.47;;;;;;;;;;5046920;28;20270;-74
2022/12/15 03:33:50;;;;;;;24.87;16.97;;;;;;;;;;5045816;28;20231;-74
2022/12/15 03:36:15;;;;;;;29.37;17.50;;;;;;;;;;5048573;28;20186;-75
2022/12/15 03:38:40;;;;;;;26.63;17.93;;;;;;;;;;5044855;28;20191;-75
2022/12/15 03:41:05;;;;;;;26.73;17.50;;;;;;;;;;5050816;28;20183;-75
2022/12/15 03:43:31;;;;;;;28.77;17.50;;;;;;;;;;5045343;28;20174;-75
2022/12/15 03:45:56;;;;;;;24.07;17.17;;;;;;;;;;5051256;28;20225;-74
2022/12/15 03:48:21;;;;;;;26.93;17.77;;;;;;;;;;5051332;28;20255;-75
2022/12/15 03:50:46;;;;;;;27.83;16.80;;;;;;;;;;5045022;28;20186;-74
2022/12/15 03:53:12;;;;;;;30.83;17.83;;;;;;;;;;5049726;28;20186;-75
2022/12/15 03:55:37;;;;;;;26.90;18.07;;;;;;;;;;5046455;28;20195;-74
2022/12/15 03:58:02;;;;;;;26.13;17.40;;;;;;;;;;5044703;28;20246;-75
2022/12/15 04:00:27;;;;;;;26.97;17.53;;;;;;;;;;5043895;28;20182;-74
2022/12/15 04:02:53;;;;;;;28.57;17.70;;;;;;;;;;5043535;28;20182;-75
2022/12/15 04:05:25;;;;;;;27.73;17.93;;;;;;;;;;5043183;28;20183;-74
2022/12/15 04:07:51;;;;;;;28.87;17.97;;;;;;;;;;5043463;28;20183;-74
2022/12/15 04:10:16;;;;;;;25.37;16.03;;;;;;;;;;5043145;28;20189;-74
2022/12/15 04:12:42;;;;;;;28.13;16.57;;;;;;;;;;5043770;28;20205;-74
2022/12/15 04:15:07;;;;;;;31.27;17.43;;;;;;;;;;5040935;28;20205;-75
2022/12/15 04:17:33;;;;;;;26.43;16.50;;;;;;;;;;5044759;28;20208;-75
2022/12/15 04:20:10;;;;;;;25.67;16.93;;;;;;;;;;5045181;28;20199;-74
2022/12/15 04:22:40;;;;;;;28.80;18.67;;;;;;;;;;5043508;28;20191;-75
2022/12/15 05:33:26;;;;;;;93.00;60.70;;;;;;;;;;5037066;28;20335;-74
2022/12/15 05:35:54;;;;;;;39.30;26.97;;;;;;;;;;5024952;28;20183;-74
2022/12/15 05:38:19;;;;;;;73.47;45.00;;;;;;;;;;5028879;28;20207;-73
2022/12/15 05:40:45;;;;;;;73.57;44.57;;;;;;;;;;5010894;28;20266;-74
2022/12/15 05:43:10;;;;;;;45.90;31.00;;;;;;;;;;5007033;28;20205;-73
2022/12/15 05:45:35;;;;;;;31.83;24.50;;;;;;;;;;5009552;28;20183;-74
2022/12/15 05:48:00;;;;;;;32.27;22.93;;;;;;;;;;5028735;28;20258;-75
2022/12/15 05:50:26;;;;;;;29.70;19.83;;;;;;;;;;5011665;28;20275;-74
2022/12/15 05:52:51;;;;;;;28.53;17.63;;;;;;;;;;5028877;28;20176;-74
2022/12/15 05:55:16;;;;;;;26.87;16.27;;;;;;;;;;5004016;28;20234;-74
2022/12/15 05:57:42;;;;;;;29.87;19.17;;;;;;;;;;5027693;28;20238;-74
2022/12/15 06:00:07;;;;;;;30.87;19.10;;;;;;;;;;5014183;28;20347;-75
2022/12/15 06:02:33;;;;;;;28.97;19.47;;;;;;;;;;5007621;28;20181;-79
2022/12/15 06:04:58;;;;;;;28.40;18.93;;;;;;;;;;5015405;28;20322;-87
2022/12/15 06:07:23;;;;;;;32.43;21.07;;;;;;;;;;5017193;28;20279;-86
2022/12/15 06:09:48;;;;;;;25.97;16.67;;;;;;;;;;5014924;28;20183;-88
2022/12/15 06:12:14;;;;;;;27.90;18.80;;;;;;;;;;5002379;28;20277;-85
2022/12/15 06:14:39;;;;;;;28.33;19.43;;;;;;;;;;5005359;28;20186;-85
2022/12/15 06:17:04;;;;;;;27.87;16.90;;;;;;;;;;5014152;28;20206;-86
2022/12/15 06:19:29;;;;;;;28.87;17.97;;;;;;;;;;5005828;28;20203;-85
2022/12/15 06:21:55;;;;;;;25.50;15.70;;;;;;;;;;5015595;28;20210;-85
2022/12/15 06:24:20;;;;;;;30.43;19.90;;;;;;;;;;5010454;28;20175;-86
2022/12/15 06:26:45;;;;;;;25.37;17.10;;;;;;;;;;5008496;28;20183;-87
2022/12/15 06:29:12;;;;;;;30.47;17.93;;;;;;;;;;5008224;28;20221;-85
2022/12/15 06:31:37;;;;;;;27.97;18.37;;;;;;;;;;5010306;28;20183;-86
2022/12/15 06:34:06;;;;;;;30.03;19.80;;;;;;;;;;5030006;28;20254;-86
2022/12/15 06:36:32;;;;;;;26.63;17.37;;;;;;;;;;5017783;28;20202;-84
2022/12/15 06:38:58;;;;;;;29.23;17.93;;;;;;;;;;5012732;28;20207;-87
2022/12/15 06:41:23;;;;;;;31.27;19.57;;;;;;;;;;5009168;28;20183;-85
2022/12/15 06:43:49;;;;;;;26.73;17.30;;;;;;;;;;5011764;28;20183;-86
2022/12/15 06:46:15;;;;;;;29.90;18.47;;;;;;;;;;5003093;28;20188;-87
2022/12/15 06:48:43;;;;;;;28.37;16.53;;;;;;;;;;5011646;28;20187;-85
2022/12/15 06:51:09;;;;;;;30.60;18.37;;;;;;;;;;5007105;28;20193;-86
2022/12/15 06:53:35;;;;;;;28.40;17.30;;;;;;;;;;5008759;28;20203;-86
2022/12/15 06:56:01;;;;;;;34.77;20.50;;;;;;;;;;5009856;28;20211;-86
2022/12/15 06:58:26;;;;;;;35.73;19.83;;;;;;;;;;5025430;28;20214;-86
2022/12/15 07:00:51;;;;;;;31.03;18.20;;;;;;;;;;5012374;28;20187;-85
2022/12/15 07:03:17;;;;;;;35.73;19.20;;;;;;;;;;5011826;28;20182;-86
2022/12/15 07:05:43;;;;;;;27.13;17.87;;;;;;;;;;5012057;28;20195;-86
2022/12/15 07:08:13;;;;;;;26.93;18.13;;;;;;;;;;5007700;28;20179;-85
2022/12/15 07:10:39;;;;;;;28.53;18.40;;;;;;;;;;5004858;28;20254;-85
2022/12/15 07:13:04;;;;;;;28.07;17.00;;;;;;;;;;5010472;28;20201;-86
2022/12/15 07:15:30;;;;;;;28.30;16.73;;;;;;;;;;5003495;28;20180;-88
2022/12/15 07:17:55;;;;;;;27.17;16.30;;;;;;;;;;5003571;28;20187;-85
2022/12/15 07:20:20;;;;;;;29.83;18.50;;;;;;;;;;5006588;28;20261;-78
2022/12/15 07:22:49;;;;;;;35.23;21.27;;;;;;;;;;5010270;28;20183;-83
2022/12/15 07:25:15;;;;;;;44.00;25.30;;;;;;;;;;5009171;28;20175;-86
2022/12/15 07:27:40;;;;;;;38.47;21.97;;;;;;;;;;5015354;28;20176;-86
2022/12/15 07:30:06;;;;;;;29.07;17.03;;;;;;;;;;5011522;28;20180;-87
2022/12/15 07:32:31;;;;;;;36.77;22.40;;;;;;;;;;5009337;28;20180;-87
2022/12/15 07:34:57;;;;;;;35.10;20.23;;;;;;;;;;5014630;28;20248;-87
2022/12/15 07:37:22;;;;;;;30.17;18.93;;;;;;;;;;5011472;28;20187;-87
2022/12/15 07:39:47;;;;;;;32.73;19.73;;;;;;;;;;5013279;28;20294;-85
2022/12/15 07:42:13;;;;;;;28.30;18.57;;;;;;;;;;5009246;28;20324;-86
2022/12/15 07:44:38;;;;;;;29.47;18.97;;;;;;;;;;5016644;28;20183;-86
2022/12/15 07:47:03;;;;;;;33.63;19.73;;;;;;;;;;5018904;28;20174;-87
2022/12/15 07:49:28;;;;;;;36.60;21.73;;;;;;;;;;5021690;28;20177;-86
2022/12/15 07:51:57;;;;;;;40.93;28.13;;;;;;;;;;5015788;28;20179;-86
2022/12/15 07:54:22;;;;;;;34.67;22.20;;;;;;;;;;5018589;28;20262;-87
2022/12/15 07:56:47;;;;;;;33.97;20.17;;;;;;;;;;5015458;28;20247;-87
2022/12/15 07:59:13;;;;;;;32.07;19.00;;;;;;;;;;5014747;28;20210;-87
2022/12/15 08:01:38;;;;;;;34.73;20.53;;;;;;;;;;5015200;28;20273;-87
2022/12/15 08:04:03;;;;;;;37.37;22.50;;;;;;;;;;5012227;28;20178;-87
2022/12/15 08:06:28;;;;;;;33.73;20.43;;;;;;;;;;5015259;28;20187;-87
2022/12/15 08:08:54;;;;;;;39.13;23.47;;;;;;;;;;5016298;28;20179;-84
2022/12/15 08:11:21;;;;;;;30.47;19.40;;;;;;;;;;5008906;28;20189;-87
2022/12/15 08:13:46;;;;;;;31.10;19.50;;;;;;;;;;5008872;28;20188;-85
2022/12/15 08:16:12;;;;;;;30.70;19.50;;;;;;;;;;5029144;28;20274;-88
2022/12/15 08:18:38;;;;;;;37.20;20.77;;;;;;;;;;5008200;28;20202;-86
2022/12/15 08:21:05;;;;;;;29.87;18.20;;;;;;;;;;5016571;28;20175;-86
2022/12/15 08:23:31;;;;;;;29.83;20.60;;;;;;;;;;5029524;28;20178;-85
2022/12/15 08:26:04;;;;;;;31.17;18.30;;;;;;;;;;5014475;28;20183;-86
2022/12/15 08:28:31;;;;;;;27.53;18.00;;;;;;;;;;5012056;28;20221;-87
2022/12/15 08:31:00;;;;;;;34.13;18.87;;;;;;;;;;5014399;28;20187;-87
2022/12/15 08:33:25;;;;;;;33.73;19.73;;;;;;;;;;5021471;28;20241;-87
2022/12/15 08:35:51;;;;;;;33.80;19.43;;;;;;;;;;5045848;28;20180;-84
2022/12/15 08:38:16;;;;;;;30.33;17.93;;;;;;;;;;5046844;28;20187;-87
2022/12/15 08:40:41;;;;;;;28.83;19.00;;;;;;;;;;5046765;28;20182;-87
2022/12/15 08:43:06;;;;;;;28.10;18.80;;;;;;;;;;5051365;28;20182;-87
2022/12/15 08:45:31;;;;;;;27.23;17.53;;;;;;;;;;5049951;28;20173;-87
2022/12/15 08:47:57;;;;;;;27.27;17.27;;;;;;;;;;5049123;28;20233;-86
2022/12/15 08:50:22;;;;;;;28.57;16.80;;;;;;;;;;5050025;28;20221;-87
2022/12/15 08:52:47;;;;;;;26.10;16.73;;;;;;;;;;5050043;28;20179;-87
2022/12/15 08:55:12;;;;;;;21.43;16.30;;;;;;;;;;5047253;28;20174;-88
2022/12/15 08:57:37;;;;;;;27.83;17.17;;;;;;;;;;5039750;28;20175;-86
2022/12/15 09:00:04;;;;;;;25.33;17.30;;;;;;;;;;5052577;28;20207;-86
2022/12/15 09:02:29;;;;;;;26.07;15.93;;;;;;;;;;5049173;28;20196;-87
2022/12/15 09:04:54;;;;;;;27.10;16.00;;;;;;;;;;5049963;28;20183;-85
2022/12/15 09:07:20;;;;;;;29.17;19.40;;;;;;;;;;5045733;28;20170;-87
2022/12/15 09:09:45;;;;;;;27.07;16.87;;;;;;;;;;5046847;28;20179;-87
2022/12/15 09:12:11;;;;;;;26.77;16.83;;;;;;;;;;5048505;28;20264;-86
2022/12/15 09:14:36;;;;;;;23.80;15.10;;;;;;;;;;5045816;28;20170;-87
2022/12/15 09:17:01;;;;;;;27.77;14.83;;;;;;;;;;5051142;28;20183;-86
2022/12/15 09:19:26;;;;;;;22.67;14.67;;;;;;;;;;5046100;28;20200;-85
2022/12/15 09:21:52;;;;;;;25.23;15.83;;;;;;;;;;5049152;28;20297;-85
2022/12/15 09:24:17;;;;;;;21.07;14.77;;;;;;;;;;5051444;28;20233;-87
2022/12/15 09:26:43;;;;;;;23.17;15.70;;;;;;;;;;5044151;28;20183;-86
2022/12/15 09:29:12;;;;;;;21.30;13.03;;;;;;;;;;5047220;28;20186;-87
2022/12/15 09:31:37;;;;;;;24.73;16.57;;;;;;;;;;5043274;28;20180;-87
2022/12/15 09:34:03;;;;;;;23.23;14.40;;;;;;;;;;5046183;28;20243;-86
2022/12/15 09:36:29;;;;;;;25.37;14.47;;;;;;;;;;5047385;28;20182;-85
2022/12/15 09:38:54;;;;;;;22.30;14.10;;;;;;;;;;5037139;28;20214;-86
2022/12/15 09:41:22;;;;;;;26.33;15.00;;;;;;;;;;5041233;28;20180;-86
2022/12/15 09:43:53;;;;;;;25.57;14.40;;;;;;;;;;5041134;28;20207;-85
2022/12/15 09:46:37;;;;;;;21.17;13.07;;;;;;;;;;5042833;28;20183;-85
2022/12/15 09:49:08;;;;;;;26.23;14.90;;;;;;;;;;5045456;28;20190;-85
2022/12/15 09:51:36;;;;;;;27.07;15.40;;;;;;;;;;5047543;28;20182;-86
2022/12/15 09:54:02;;;;;;;25.70;15.60;;;;;;;;;;5049201;28;20198;-86
2022/12/15 09:56:50;;;;;;;24.43;15.53;;;;;;;;;;5042437;28;20190;-86
2022/12/15 09:59:24;;;;;;;25.57;15.57;;;;;;;;;;5040576;28;20255;-85
2022/12/15 10:01:52;;;;;;;28.63;19.60;;;;;;;;;;5046229;28;20245;-86
2022/12/15 10:04:36;;;;;;;27.07;17.53;;;;;;;;;;5048908;28;20218;-86
2022/12/15 10:07:11;;;;;;;28.47;17.70;;;;;;;;;;5045165;28;20176;-85
2022/12/15 10:09:37;;;;;;;29.53;17.87;;;;;;;;;;5045052;28;20243;-87
2022/12/15 10:12:05;;;;;;;28.10;18.07;;;;;;;;;;5042904;28;20364;-86
2022/12/15 10:14:31;;;;;;;28.77;17.90;;;;;;;;;;5046213;28;20176;-84
2022/12/15 10:16:56;;;;;;;25.53;17.33;;;;;;;;;;5044043;28;20257;-86
2022/12/15 10:19:28;;;;;;;30.53;19.17;;;;;;;;;;5041989;28;20217;-85
2022/12/15 10:21:54;;;;;;;28.87;19.00;;;;;;;;;;5046440;28;20180;-85
2022/12/15 10:24:20;;;;;;;28.97;17.67;;;;;;;;;;5045092;28;20170;-85
2022/12/15 10:26:58;;;;;;;33.17;20.07;;;;;;;;;;5047128;28;20187;-86
2022/12/15 10:29:43;;;;;;;25.93;16.03;;;;;;;;;;5043313;28;20414;-87
2022/12/15 10:32:15;;;;;;;25.53;15.87;;;;;;;;;;5042194;28;20290;-85
2022/12/15 10:34:41;;;;;;;30.80;18.77;;;;;;;;;;5047313;28;20238;-86
2022/12/15 10:37:12;;;;;;;27.10;16.37;;;;;;;;;;5048983;28;20186;-86
2022/12/15 10:39:39;;;;;;;29.30;18.20;;;;;;;;;;5043477;28;20233;-85
2022/12/15 10:42:09;;;;;;;29.80;19.03;;;;;;;;;;5042008;28;20178;-85
2022/12/15 10:44:36;;;;;;;29.20;17.33;;;;;;;;;;5043845;28;20180;-85
2022/12/15 10:47:08;;;;;;;28.70;16.17;;;;;;;;;;5047500;28;20430;-86
2022/12/15 10:49:33;;;;;;;28.20;18.07;;;;;;;;;;5040406;28;20554;-85
2022/12/15 10:52:01;;;;;;;30.20;19.63;;;;;;;;;;5047513;28;20273;-85
2022/12/15 10:54:30;;;;;;;32.03;19.63;;;;;;;;;;5048212;28;20202;-85
2022/12/15 10:57:01;;;;;;;30.80;19.87;;;;;;;;;;5039441;28;20188;-85
2022/12/15 10:59:31;;;;;;;31.87;20.27;;;;;;;;;;5040902;28;20192;-85
2022/12/15 11:02:15;;;;;;;30.13;18.30;;;;;;;;;;5047165;28;20179;-85
2022/12/15 11:04:52;;;;;;;28.43;18.93;;;;;;;;;;5046791;28;20179;-85
2022/12/15 11:07:18;;;;;;;30.43;18.40;;;;;;;;;;5038689;28;20237;-85
2022/12/15 11:09:44;;;;;;;39.80;24.17;;;;;;;;;;5045524;28;20189;-85
2022/12/15 11:15:22;;;;;;;35.40;21.97;;;;;;;;;;5038854;28;20250;-85
2022/12/15 11:18:11;;;;;;;29.30;17.53;;;;;;;;;;5047176;28;20285;-85
2022/12/15 11:20:42;;;;;;;40.80;22.60;;;;;;;;;;5041951;28;20371;-85
2022/12/15 11:23:15;;;;;;;33.63;19.20;;;;;;;;;;5047058;28;20175;-85
2022/12/15 11:25:59;;;;;;;29.60;17.33;;;;;;;;;;5046442;28;20179;-85
2022/12/15 11:28:28;;;;;;;31.20;19.40;;;;;;;;;;5041891;28;20176;-85
2022/12/15 11:31:15;;;;;;;37.57;22.13;;;;;;;;;;5047756;28;20179;-85
2022/12/15 11:33:40;;;;;;;35.13;20.43;;;;;;;;;;5063588;28;20239;-83
2022/12/15 11:36:35;;;;;;;52.30;31.50;;;;;;;;;;5045234;28;20175;-84
2022/12/15 11:39:07;;;;;;;68.53;39.47;;;;;;;;;;5046781;28;20215;-84
2022/12/15 11:41:51;;;;;;;33.60;20.87;;;;;;;;;;5039364;28;20172;-85
2022/12/15 11:44:21;;;;;;;40.13;22.30;;;;;;;;;;5038620;28;20181;-85
2022/12/15 11:46:56;;;;;;;28.80;19.80;;;;;;;;;;5048721;28;20274;-85
2022/12/15 11:49:31;;;;;;;34.93;18.83;;;;;;;;;;5039598;28;20183;-85
2022/12/15 11:52:02;;;;;;;34.47;21.50;;;;;;;;;;5050358;28;20197;-85
2022/12/15 11:54:52;;;;;;;36.47;20.50;;;;;;;;;;5048384;28;20180;-83
2022/12/15 11:57:36;;;;;;;35.97;21.40;;;;;;;;;;5046686;28;20219;-85
2022/12/15 12:00:18;;;;;;;37.27;23.33;;;;;;;;;;5050693;28;20237;-85
2022/12/15 12:02:49;;;;;;;39.87;23.63;;;;;;;;;;5050121;28;20263;-85
2022/12/15 12:05:33;;;;;;;39.77;23.87;;;;;;;;;;5049909;28;20196;-85
2022/12/15 12:08:21;;;;;;;38.57;22.67;;;;;;;;;;5049521;28;20180;-85
2022/12/15 12:10:52;;;;;;;36.83;24.43;;;;;;;;;;5048894;28;20171;-84
2022/12/15 12:13:27;;;;;;;36.23;21.90;;;;;;;;;;5051755;28;20199;-84
2022/12/15 12:15:55;;;;;;;36.57;21.77;;;;;;;;;;5047698;28;20179;-84
2022/12/15 12:18:23;;;;;;;36.93;22.67;;;;;;;;;;5048844;28;20220;-83
2022/12/15 12:20:50;;;;;;;43.10;25.93;;;;;;;;;;5046860;28;20188;-84
2022/12/15 12:23:18;;;;;;;43.30;24.33;;;;;;;;;;5049040;28;20344;-85
2022/12/15 12:25:59;;;;;;;35.60;19.63;;;;;;;;;;5050944;28;20199;-84
2022/12/15 12:28:56;;;;;;;35.80;21.57;;;;;;;;;;5052872;28;20171;-84
2022/12/15 12:31:40;;;;;;;39.63;22.97;;;;;;;;;;5026881;28;20596;-84
2022/12/15 12:34:12;;;;;;;42.57;24.47;;;;;;;;;;5051123;28;20228;-83
2022/12/15 12:36:38;;;;;;;41.57;24.63;;;;;;;;;;5048089;28;20177;-84
2022/12/15 12:39:04;;;;;;;43.93;24.27;;;;;;;;;;5047957;28;20201;-84
2022/12/15 12:41:38;;;;;;;36.30;22.77;;;;;;;;;;5045407;28;20180;-84
2022/12/15 12:44:10;;;;;;;36.07;22.20;;;;;;;;;;5049613;28;20179;-84
2022/12/15 12:46:39;;;;;;;45.23;24.60;;;;;;;;;;5042703;28;20260;-84
2022/12/15 12:49:17;;;;;;;45.07;24.10;;;;;;;;;;5042548;28;20282;-83
2022/12/15 12:51:49;;;;;;;40.77;24.87;;;;;;;;;;5047367;28;20241;-84
2022/12/15 12:54:32;;;;;;;44.90;26.93;;;;;;;;;;5047035;28;20188;-84
2022/12/15 12:56:58;;;;;;;41.70;26.63;;;;;;;;;;5047590;28;20181;-84
2022/12/15 12:59:29;;;;;;;41.77;24.40;;;;;;;;;;5043573;28;20222;-84
2022/12/15 13:01:55;;;;;;;41.23;23.43;;;;;;;;;;5044469;28;20177;-83
2022/12/15 13:04:29;;;;;;;43.20;24.53;;;;;;;;;;5049013;28;20183;-84
2022/12/15 13:06:54;;;;;;;39.37;21.60;;;;;;;;;;5042070;28;20171;-84
2022/12/15 13:09:19;;;;;;;50.58;34.50;;;;;;;;;;5049376;28;20256;-83
2022/12/15 13:11:48;;;;;;;40.33;24.43;;;;;;;;;;5046888;28;20173;-84
2022/12/15 13:14:15;;;;;;;43.73;24.80;;;;;;;;;;5049075;28;20188;-83
2022/12/15 13:16:40;;;;;;;41.10;26.13;;;;;;;;;;5052489;28;20176;-84
2022/12/15 13:19:07;;;;;;;40.40;24.10;;;;;;;;;;5045192;28;20202;-83
2022/12/15 13:21:42;;;;;;;49.83;29.57;;;;;;;;;;5044280;28;20182;-83
2022/12/15 13:24:26;;;;;;;32.67;19.23;;;;;;;;;;5048977;28;20187;-83
2022/12/15 13:26:51;;;;;;;44.70;25.20;;;;;;;;;;5046911;28;20187;-84
2022/12/15 13:29:18;;;;;;;37.73;21.17;;;;;;;;;;5043487;28;20174;-84
2022/12/15 13:31:46;;;;;;;37.97;20.97;;;;;;;;;;5043993;28;20192;-83
2022/12/15 13:34:13;;;;;;;42.10;25.00;;;;;;;;;;5050078;28;20239;-84
2022/12/15 13:36:38;;;;;;;40.20;24.27;;;;;;;;;;5047553;28;20183;-84
2022/12/15 13:39:11;;;;;;;44.50;25.30;;;;;;;;;;5043245;28;20196;-84
2022/12/15 13:41:36;;;;;;;38.53;25.87;;;;;;;;;;5043527;28;20183;-83
2022/12/15 13:44:11;;;;;;;45.70;25.13;;;;;;;;;;5049573;28;20172;-84
2022/12/15 13:46:37;;;;;;;40.13;24.43;;;;;;;;;;5044468;28;20213;-84
2022/12/15 13:49:06;;;;;;;48.57;25.30;;;;;;;;;;5041779;28;20207;-83
2022/12/15 13:51:40;;;;;;;48.30;27.33;;;;;;;;;;5048088;28;20202;-83
2022/12/15 13:54:15;;;;;;;42.13;23.00;;;;;;;;;;5046621;28;20446;-83
2022/12/15 13:56:43;;;;;;;39.60;23.13;;;;;;;;;;5046953;28;20190;-82
2022/12/15 13:59:27;;;;;;;51.97;29.17;;;;;;;;;;5042794;28;20239;-77
2022/12/15 14:01:52;;;;;;;46.73;27.30;;;;;;;;;;5043912;28;20182;-77
2022/12/15 14:04:18;;;;;;;45.47;24.47;;;;;;;;;;5048203;28;20247;-77
2022/12/15 14:06:48;;;;;;;41.50;25.80;;;;;;;;;;5043454;28;20192;-77
2022/12/15 14:09:15;;;;;;;45.53;27.60;;;;;;;;;;5045059;28;20398;-76
2022/12/15 14:11:42;;;;;;;52.37;30.60;;;;;;;;;;5044662;28;20184;-77
2022/12/15 14:14:15;;;;;;;48.30;28.90;;;;;;;;;;5044252;28;20185;-77
2022/12/15 14:16:40;;;;;;;48.20;27.70;;;;;;;;;;5047250;28;20172;-77
2022/12/15 14:19:12;;;;;;;48.20;28.30;;;;;;;;;;5044133;28;20203;-77
2022/12/15 14:21:37;;;;;;;51.47;29.57;;;;;;;;;;5046507;28;20176;-77
2022/12/15 14:24:14;;;;;;;50.03;27.43;;;;;;;;;;5048451;28;20184;-77
2022/12/15 14:26:40;;;;;;;48.80;25.53;;;;;;;;;;5071032;28;20168;-77
2022/12/15 14:29:05;;;;;;;45.13;26.83;;;;;;;;;;5043537;28;20189;-77
2022/12/15 14:31:30;;;;;;;41.60;24.47;;;;;;;;;;5043395;28;20185;-77
2022/12/15 14:34:07;;;;;;;44.57;26.10;;;;;;;;;;5047514;28;20230;-76
2022/12/15 14:36:33;;;;;;;43.77;24.73;;;;;;;;;;5044349;28;20169;-77
2022/12/15 14:39:00;;;;;;;39.53;25.10;;;;;;;;;;5044270;28;20203;-76
2022/12/15 14:41:25;;;;;;;44.37;27.03;;;;;;;;;;5049418;28;20255;-77
2022/12/15 14:43:52;;;;;;;49.92;26.40;;;;;;;;;;5040553;28;20312;-76
2022/12/15 14:46:18;;;;;;;35.83;20.00;;;;;;;;;;5046487;28;20179;-77
2022/12/15 14:48:52;;;;;;;49.37;26.10;;;;;;;;;;5046801;28;20245;-77
2022/12/15 14:51:17;;;;;;;38.37;24.37;;;;;;;;;;5041663;28;20191;-77
2022/12/15 14:53:46;;;;;;;40.27;22.67;;;;;;;;;;5045242;28;20174;-76
2022/12/15 14:56:13;;;;;;;42.30;24.03;;;;;;;;;;5038777;28;20180;-77
2022/12/15 14:58:39;;;;;;;34.03;17.40;;;;;;;;;;5043694;28;20227;-76
2022/12/15 15:01:27;;;;;;;46.63;25.30;;;;;;;;;;5042117;28;20183;-76
2022/12/15 15:03:56;;;;;;;39.67;21.77;;;;;;;;;;5043954;28;20661;-76
2022/12/15 15:06:26;;;;;;;42.10;21.70;;;;;;;;;;5041501;28;20179;-76
2022/12/15 15:08:51;;;;;;;40.73;21.17;;;;;;;;;;5047723;28;20180;-76
2022/12/15 15:11:20;;;;;;;40.87;22.50;;;;;;;;;;5043824;28;20180;-76
2022/12/15 15:13:45;;;;;;;44.50;22.63;;;;;;;;;;5042749;28;20184;-76
2022/12/15 15:16:15;;;;;;;43.33;23.83;;;;;;;;;;5044386;28;20182;-76
2022/12/15 15:18:41;;;;;;;32.93;18.67;;;;;;;;;;5045920;28;20273;-76
2022/12/15 15:21:12;;;;;;;35.13;19.03;;;;;;;;;;5044725;28;20187;-76
2022/12/15 15:23:38;;;;;;;37.93;21.13;;;;;;;;;;5044633;28;20175;-76
2022/12/15 15:26:03;;;;;;;33.77;19.23;;;;;;;;;;5050694;28;20187;-76
2022/12/15 15:28:35;;;;;;;40.60;21.73;;;;;;;;;;5046812;28;20184;-76
2022/12/15 15:31:05;;;;;;;37.17;19.93;;;;;;;;;;5051854;28;20182;-76
2022/12/15 15:33:31;;;;;;;34.23;17.03;;;;;;;;;;5048848;28;20230;-77
2022/12/15 15:35:57;;;;;;;52.77;26.33;;;;;;;;;;5051326;28;20261;-76
2022/12/15 15:38:25;;;;;;;35.60;20.30;;;;;;;;;;5047584;28;20209;-76
2022/12/15 15:40:55;;;;;;;34.50;19.00;;;;;;;;;;5049713;28;20170;-76
2022/12/15 15:43:21;;;;;;;33.23;19.73;;;;;;;;;;5049475;28;20187;-76
2022/12/15 15:45:47;;;;;;;35.17;20.30;;;;;;;;;;5050868;28;20187;-76
2022/12/15 15:48:18;;;;;;;34.03;19.63;;;;;;;;;;5042459;28;20228;-76
2022/12/15 15:50:43;;;;;;;32.87;19.37;;;;;;;;;;5048955;28;20182;-76
2022/12/15 15:53:15;;;;;;;27.97;17.37;;;;;;;;;;5049882;28;20237;-76
2022/12/15 15:55:41;;;;;;;31.03;16.60;;;;;;;;;;5045581;28;20267;-76
2022/12/15 15:58:10;;;;;;;32.80;18.77;;;;;;;;;;5047807;28;20218;-76
2022/12/15 16:00:35;;;;;;;32.77;19.90;;;;;;;;;;5045316;28;20198;-76
2022/12/15 16:03:00;;;;;;;30.67;18.40;;;;;;;;;;5049462;28;20189;-76
2022/12/15 16:05:25;;;;;;;29.40;17.43;;;;;;;;;;5045842;28;20318;-75
2022/12/15 16:07:51;;;;;;;33.77;20.33;;;;;;;;;;5049510;28;20188;-75
2022/12/15 16:10:17;;;;;;;38.03;21.17;;;;;;;;;;5036929;28;20172;-76
2022/12/15 16:12:52;;;;;;;32.13;19.13;;;;;;;;;;5070137;28;20179;-76
2022/12/15 16:15:19;;;;;;;33.60;18.80;;;;;;;;;;5051631;28;20183;-75
2022/12/15 16:17:45;;;;;;;43.07;22.87;;;;;;;;;;5052050;28;20196;-76
2022/12/15 16:20:11;;;;;;;39.10;20.27;;;;;;;;;;5043991;28;20201;-76
2022/12/15 16:22:37;;;;;;;34.70;21.93;;;;;;;;;;5054772;28;20175;-76
2022/12/15 16:25:02;;;;;;;32.37;19.00;;;;;;;;;;5057109;28;20181;-76
2022/12/15 16:27:28;;;;;;;31.43;17.27;;;;;;;;;;5053300;28;20225;-76
2022/12/15 16:29:53;;;;;;;31.13;18.50;;;;;;;;;;5052735;28;20195;-76
2022/12/15 16:32:18;;;;;;;43.47;22.47;;;;;;;;;;5042570;28;20175;-76
2022/12/15 16:34:43;;;;;;;31.07;19.10;;;;;;;;;;5027113;28;20220;-84
2022/12/15 16:37:22;;;;;;;31.63;19.53;;;;;;;;;;5012638;28;20192;-81
2022/12/15 16:39:48;;;;;;;32.40;20.33;;;;;;;;;;5012908;28;20700;-76
2022/12/15 16:42:13;;;;;;;33.20;20.03;;;;;;;;;;5013709;28;20178;-76
2022/12/15 16:44:38;;;;;;;35.63;20.70;;;;;;;;;;5030217;28;20273;-76
2022/12/15 16:47:03;;;;;;;32.63;18.70;;;;;;;;;;5014118;28;20188;-76